sensor_id;sensor_type;location;lat;lon;timestamp;pressure;altitude;pressure_sealevel;temperature;humidity
3444;BME280;1736;52.068;6.968;2023-07-24T00:02:24;100823.47;;;18.09;100.00
3444;BME280;1736;52.068;6.968;2023-07-24T00:04:50;100816.44;;;18.08;100.00
3444;BME280;1736;52.068;6.968;2023-07-24T00:07:17;100745.25;;;18.12;100.00
3444;BME280;1736;52.068;6.968;2023-07-24T00:09:45;100651.59;;;18.09;100.00
3444;BME280;1736;52.068;6.968;2023-07-24T00:12:11;100674.63;;;18.04;100.00
3444;BME280;1736;52.068;6.968;2023-07-24T00:14:38;100672.44;;;17.99;100.00
3444;BME280;1736;52.068;6.968;2023-07-24T00:17:05;100641.59;;;17.95;100.00
3444;BME280;1736;52.068;6.968;2023-07-24T00:19:31;100648.84;;;17.95;100.00
3444;BME280;1736;52.068;6.968;2023-07-24T00:21:58;100627.31;;;18.03;100.00
3444;BME280;1736;52.068;6.968;2023-07-24T00:24:24;100615.44;;;17.97;100.00
3444;BME280;1736;52.068;6.968;2023-07-24T00:26:52;100633.91;;;17.92;100.00
3444;BME280;1736;52.068;6.968;2023-07-24T00:29:19;100620.50;;;17.92;100.00
3444;BME280;1736;52.068;6.968;2023-07-24T00:31:45;100615.06;;;18.00;100.00
3444;BME280;1736;52.068;6.968;2023-07-24T00:34:12;100591.09;;;17.99;100.00
3444;BME280;1736;52.068;6.968;2023-07-24T00:36:38;100595.25;;;18.01;100.00
3444;BME280;1736;52.068;6.968;2023-07-24T00:39:05;100585.84;;;18.05;100.00
3444;BME280;1736;52.068;6.968;2023-07-24T00:41:32;100573.38;;;18.12;100.00
3444;BME280;1736;52.068;6.968;2023-07-24T00:44:00;100551.75;;;18.06;100.00
3444;BME280;1736;52.068;6.968;2023-07-24T00:46:27;100558.97;;;18.05;100.00
3444;BME280;1736;52.068;6.968;2023-07-24T00:48:57;100539.16;;;18.06;100.00
3444;BME280;1736;52.068;6.968;2023-07-24T00:51:25;100540.94;;;18.14;100.00
3444;BME280;1736;52.068;6.968;2023-07-24T00:53:54;100518.16;;;18.10;100.00
3444;BME280;1736;52.068;6.968;2023-07-24T00:56:20;100522.03;;;18.07;100.00
3444;BME280;1736;52.068;6.968;2023-07-24T00:58:47;100521.22;;;18.07;100.00
3444;BME280;1736;52.068;6.968;2023-07-24T01:01:16;100518.78;;;17.97;100.00
3444;BME280;1736;52.068;6.968;2023-07-24T01:03:43;100515.41;;;17.95;100.00
3444;BME280;1736;52.068;6.968;2023-07-24T01:06:10;100502.19;;;17.94;100.00
3444;BME280;1736;52.068;6.968;2023-07-24T01:08:36;100495.97;;;17.93;100.00
3444;BME280;1736;52.068;6.968;2023-07-24T01:11:08;100492.81;;;17.90;100.00
3444;BME280;1736;52.068;6.968;2023-07-24T01:13:41;100491.81;;;17.91;100.00
3444;BME280;1736;52.068;6.968;2023-07-24T01:16:14;100481.88;;;17.91;100.00
3444;BME280;1736;52.068;6.968;2023-07-24T01:18:42;100481.19;;;17.97;100.00
3444;BME280;1736;52.068;6.968;2023-07-24T01:21:11;100475.81;;;17.97;100.00
3444;BME280;1736;52.068;6.968;2023-07-24T01:23:45;100471.06;;;17.99;100.00
3444;BME280;1736;52.068;6.968;2023-07-24T01:26:21;100462.09;;;17.92;100.00
3444;BME280;1736;52.068;6.968;2023-07-24T01:28:49;100461.38;;;17.98;100.00
3444;BME280;1736;52.068;6.968;2023-07-24T01:31:15;100449.31;;;17.94;100.00
3444;BME280;1736;52.068;6.968;2023-07-24T01:33:42;100453.97;;;18.00;100.00
3444;BME280;1736;52.068;6.968;2023-07-24T01:36:09;100450.16;;;17.95;100.00
3444;BME280;1736;52.068;6.968;2023-07-24T01:38:36;100446.81;;;17.93;100.00
3444;BME280;1736;52.068;6.968;2023-07-24T01:41:04;100438.47;;;17.88;100.00
3444;BME280;1736;52.068;6.968;2023-07-24T01:43:32;100441.09;;;17.96;100.00
3444;BME280;1736;52.068;6.968;2023-07-24T01:45:58;100541.44;;;17.95;100.00
3444;BME280;1736;52.068;6.968;2023-07-24T01:48:25;100546.13;;;17.93;100.00
3444;BME280;1736;52.068;6.968;2023-07-24T01:50:51;100503.75;;;17.88;100.00
3444;BME280;1736;52.068;6.968;2023-07-24T01:53:18;100494.19;;;17.86;100.00
3444;BME280;1736;52.068;6.968;2023-07-24T01:55:44;100472.91;;;17.84;100.00
3444;BME280;1736;52.068;6.968;2023-07-24T01:58:11;100454.47;;;17.81;100.00
3444;BME280;1736;52.068;6.968;2023-07-24T02:00:39;100439.66;;;17.85;100.00
3444;BME280;1736;52.068;6.968;2023-07-24T02:03:05;100435.97;;;17.86;100.00
3444;BME280;1736;52.068;6.968;2023-07-24T02:05:32;100438.81;;;17.85;100.00
3444;BME280;1736;52.068;6.968;2023-07-24T02:07:59;100427.34;;;17.76;100.00
3444;BME280;1736;52.068;6.968;2023-07-24T02:10:26;100425.84;;;17.74;100.00
3444;BME280;1736;52.068;6.968;2023-07-24T02:12:52;100418.78;;;17.73;100.00
3444;BME280;1736;52.068;6.968;2023-07-24T02:15:19;100427.03;;;17.71;100.00
3444;BME280;1736;52.068;6.968;2023-07-24T02:17:47;100450.53;;;17.69;100.00
3444;BME280;1736;52.068;6.968;2023-07-24T02:20:13;100443.06;;;17.79;100.00
3444;BME280;1736;52.068;6.968;2023-07-24T02:22:40;100430.50;;;17.80;100.00
3444;BME280;1736;52.068;6.968;2023-07-24T02:25:07;100420.09;;;17.77;100.00
3444;BME280;1736;52.068;6.968;2023-07-24T02:27:34;100411.41;;;17.75;100.00
3444;BME280;1736;52.068;6.968;2023-07-24T02:30:00;100402.81;;;17.79;100.00
3444;BME280;1736;52.068;6.968;2023-07-24T02:32:27;100398.81;;;17.75;100.00
3444;BME280;1736;52.068;6.968;2023-07-24T02:34:55;100389.09;;;17.74;100.00
3444;BME280;1736;52.068;6.968;2023-07-24T02:37:22;100385.03;;;17.78;100.00
3444;BME280;1736;52.068;6.968;2023-07-24T02:39:48;100381.72;;;17.76;100.00
3444;BME280;1736;52.068;6.968;2023-07-24T02:42:15;100378.28;;;17.82;100.00
3444;BME280;1736;52.068;6.968;2023-07-24T02:44:41;100373.94;;;17.81;100.00
3444;BME280;1736;52.068;6.968;2023-07-24T02:47:08;100361.56;;;17.80;100.00
3444;BME280;1736;52.068;6.968;2023-07-24T02:49:34;100371.44;;;17.80;100.00
3444;BME280;1736;52.068;6.968;2023-07-24T02:52:03;100367.91;;;17.79;100.00
3444;BME280;1736;52.068;6.968;2023-07-24T02:54:29;100364.59;;;17.77;100.00
3444;BME280;1736;52.068;6.968;2023-07-24T02:56:56;100373.50;;;17.78;100.00
3444;BME280;1736;52.068;6.968;2023-07-24T02:59:23;100361.22;;;17.75;100.00
3444;BME280;1736;52.068;6.968;2023-07-24T03:01:51;100371.25;;;17.81;100.00
3444;BME280;1736;52.068;6.968;2023-07-24T03:04:17;100361.91;;;17.77;100.00
3444;BME280;1736;52.068;6.968;2023-07-24T03:06:44;100068.00;;;17.67;100.00
3444;BME280;1736;52.068;6.968;2023-07-24T03:09:12;100201.41;;;17.58;100.00
3444;BME280;1736;52.068;6.968;2023-07-24T03:11:38;100246.41;;;17.56;100.00
3444;BME280;1736;52.068;6.968;2023-07-24T03:14:05;100264.16;;;17.57;100.00
3444;BME280;1736;52.068;6.968;2023-07-24T03:16:31;100284.13;;;17.55;100.00
3444;BME280;1736;52.068;6.968;2023-07-24T03:18:58;100292.53;;;17.52;100.00
3444;BME280;1736;52.068;6.968;2023-07-24T03:21:24;100335.00;;;17.48;100.00
3444;BME280;1736;52.068;6.968;2023-07-24T03:23:51;100348.94;;;17.44;100.00
3444;BME280;1736;52.068;6.968;2023-07-24T03:26:19;100377.44;;;17.45;100.00
3444;BME280;1736;52.068;6.968;2023-07-24T03:28:45;100393.72;;;17.43;100.00
3444;BME280;1736;52.068;6.968;2023-07-24T03:31:12;100416.53;;;17.39;100.00
3444;BME280;1736;52.068;6.968;2023-07-24T03:33:38;100453.22;;;17.39;100.00
3444;BME280;1736;52.068;6.968;2023-07-24T03:36:05;100466.81;;;17.37;100.00
3444;BME280;1736;52.068;6.968;2023-07-24T03:38:32;100483.44;;;17.33;100.00
3444;BME280;1736;52.068;6.968;2023-07-24T03:40:59;100503.38;;;17.30;100.00
3444;BME280;1736;52.068;6.968;2023-07-24T03:43:27;100555.31;;;17.37;100.00
3444;BME280;1736;52.068;6.968;2023-07-24T03:45:53;100551.66;;;17.30;100.00
3444;BME280;1736;52.068;6.968;2023-07-24T03:48:20;100568.25;;;17.34;100.00
3444;BME280;1736;52.068;6.968;2023-07-24T03:50:46;100593.94;;;17.28;100.00
3444;BME280;1736;52.068;6.968;2023-07-24T03:53:13;100606.66;;;17.26;100.00
3444;BME280;1736;52.068;6.968;2023-07-24T03:55:40;100623.44;;;17.28;100.00
3444;BME280;1736;52.068;6.968;2023-07-24T03:58:06;100639.50;;;17.36;100.00
3444;BME280;1736;52.068;6.968;2023-07-24T04:00:34;100685.28;;;17.27;100.00
3444;BME280;1736;52.068;6.968;2023-07-24T04:03:01;100692.13;;;17.37;100.00
3444;BME280;1736;52.068;6.968;2023-07-24T04:05:27;100719.97;;;17.28;100.00
3444;BME280;1736;52.068;6.968;2023-07-24T04:07:54;100678.91;;;17.28;100.00
3444;BME280;1736;52.068;6.968;2023-07-24T04:10:21;100716.63;;;17.26;100.00
3444;BME280;1736;52.068;6.968;2023-07-24T04:12:48;100743.44;;;17.26;100.00
3444;BME280;1736;52.068;6.968;2023-07-24T04:15:14;100766.91;;;17.32;100.00
3444;BME280;1736;52.068;6.968;2023-07-24T04:17:42;100789.72;;;17.28;100.00
3444;BME280;1736;52.068;6.968;2023-07-24T04:20:09;100786.72;;;17.23;100.00
3444;BME280;1736;52.068;6.968;2023-07-24T04:22:36;100797.59;;;17.22;100.00
3444;BME280;1736;52.068;6.968;2023-07-24T04:25:03;100819.53;;;17.17;100.00
3444;BME280;1736;52.068;6.968;2023-07-24T04:27:30;100845.72;;;17.23;100.00
3444;BME280;1736;52.068;6.968;2023-07-24T04:29:56;100864.31;;;17.25;100.00
3444;BME280;1736;52.068;6.968;2023-07-24T04:32:23;100823.41;;;17.23;100.00
3444;BME280;1736;52.068;6.968;2023-07-24T04:34:51;100789.88;;;17.19;100.00
3444;BME280;1736;52.068;6.968;2023-07-24T04:37:17;100854.06;;;17.12;100.00
3444;BME280;1736;52.068;6.968;2023-07-24T04:39:44;100917.06;;;17.08;100.00
3444;BME280;1736;52.068;6.968;2023-07-24T04:42:11;100946.56;;;17.08;100.00
3444;BME280;1736;52.068;6.968;2023-07-24T04:44:38;100962.50;;;17.10;100.00
3444;BME280;1736;52.068;6.968;2023-07-24T04:47:04;101006.22;;;17.10;100.00
3444;BME280;1736;52.068;6.968;2023-07-24T04:49:31;101019.81;;;17.09;100.00
3444;BME280;1736;52.068;6.968;2023-07-24T04:51:59;101042.09;;;17.09;100.00
3444;BME280;1736;52.068;6.968;2023-07-24T04:54:26;101088.38;;;17.11;100.00
3444;BME280;1736;52.068;6.968;2023-07-24T04:56:52;101111.81;;;17.09;100.00
3444;BME280;1736;52.068;6.968;2023-07-24T04:59:19;101142.31;;;17.08;100.00
3444;BME280;1736;52.068;6.968;2023-07-24T05:01:45;101161.25;;;17.07;100.00
3444;BME280;1736;52.068;6.968;2023-07-24T05:04:12;101142.31;;;17.08;100.00
3444;BME280;1736;52.068;6.968;2023-07-24T05:06:38;101171.97;;;17.07;100.00
3444;BME280;1736;52.068;6.968;2023-07-24T05:09:06;101209.88;;;17.12;100.00
3444;BME280;1736;52.068;6.968;2023-07-24T05:11:33;101239.06;;;17.15;100.00
3444;BME280;1736;52.068;6.968;2023-07-24T05:13:59;101252.94;;;17.10;100.00
3444;BME280;1736;52.068;6.968;2023-07-24T05:16:26;101262.28;;;17.06;100.00
3444;BME280;1736;52.068;6.968;2023-07-24T05:18:52;101296.84;;;17.09;100.00
3444;BME280;1736;52.068;6.968;2023-07-24T05:21:19;101259.16;;;17.11;100.00
3444;BME280;1736;52.068;6.968;2023-07-24T05:23:46;101270.41;;;17.14;100.00
3444;BME280;1736;52.068;6.968;2023-07-24T05:26:13;101302.06;;;17.11;100.00
3444;BME280;1736;52.068;6.968;2023-07-24T05:28:40;101341.22;;;17.04;100.00
3444;BME280;1736;52.068;6.968;2023-07-24T05:31:07;101374.91;;;17.06;100.00
3444;BME280;1736;52.068;6.968;2023-07-24T05:33:33;101427.72;;;17.06;100.00
3444;BME280;1736;52.068;6.968;2023-07-24T05:36:02;101491.59;;;17.10;100.00
3444;BME280;1736;52.068;6.968;2023-07-24T05:38:29;101464.25;;;17.07;100.00
3444;BME280;1736;52.068;6.968;2023-07-24T05:40:56;101477.13;;;17.03;100.00
3444;BME280;1736;52.068;6.968;2023-07-24T05:43:23;101527.09;;;17.04;100.00
3444;BME280;1736;52.068;6.968;2023-07-24T05:45:50;101552.75;;;17.07;100.00
3444;BME280;1736;52.068;6.968;2023-07-24T05:48:17;101579.88;;;17.04;100.00
3444;BME280;1736;52.068;6.968;2023-07-24T05:50:44;101598.50;;;17.05;100.00
3444;BME280;1736;52.068;6.968;2023-07-24T05:53:10;101645.63;;;17.08;100.00
3444;BME280;1736;52.068;6.968;2023-07-24T05:55:37;101791.31;;;17.08;100.00
3444;BME280;1736;52.068;6.968;2023-07-24T05:58:03;101789.88;;;17.14;100.00
3444;BME280;1736;52.068;6.968;2023-07-24T06:00:32;101846.78;;;17.17;100.00
3444;BME280;1736;52.068;6.968;2023-07-24T06:02:58;101852.84;;;17.19;100.00
3444;BME280;1736;52.068;6.968;2023-07-24T06:05:25;101822.75;;;17.25;100.00
3444;BME280;1736;52.068;6.968;2023-07-24T06:07:51;102062.25;;;17.27;100.00
3444;BME280;1736;52.068;6.968;2023-07-24T06:10:18;102020.00;;;17.20;100.00
3444;BME280;1736;52.068;6.968;2023-07-24T06:12:44;102019.88;;;17.21;100.00
3444;BME280;1736;52.068;6.968;2023-07-24T06:15:11;102071.41;;;17.15;100.00
3444;BME280;1736;52.068;6.968;2023-07-24T06:17:39;102052.78;;;17.23;100.00
3444;BME280;1736;52.068;6.968;2023-07-24T06:20:06;102046.25;;;17.07;100.00
3444;BME280;1736;52.068;6.968;2023-07-24T06:22:33;102072.19;;;17.06;100.00
3444;BME280;1736;52.068;6.968;2023-07-24T06:25:00;102202.13;;;17.13;100.00
3444;BME280;1736;52.068;6.968;2023-07-24T06:27:26;102124.31;;;17.13;100.00
3444;BME280;1736;52.068;6.968;2023-07-24T06:29:53;102058.00;;;17.15;100.00
3444;BME280;1736;52.068;6.968;2023-07-24T06:32:19;101894.38;;;17.25;100.00
3444;BME280;1736;52.068;6.968;2023-07-24T06:34:47;101890.69;;;17.26;100.00
3444;BME280;1736;52.068;6.968;2023-07-24T06:37:14;101853.81;;;17.37;100.00
3444;BME280;1736;52.068;6.968;2023-07-24T06:39:40;101853.97;;;17.45;100.00
3444;BME280;1736;52.068;6.968;2023-07-24T06:42:07;101895.91;;;17.46;100.00
3444;BME280;1736;52.068;6.968;2023-07-24T06:44:34;101951.00;;;17.50;100.00
3444;BME280;1736;52.068;6.968;2023-07-24T06:47:00;101855.91;;;17.53;100.00
3444;BME280;1736;52.068;6.968;2023-07-24T06:49:27;101868.63;;;17.60;100.00
3444;BME280;1736;52.068;6.968;2023-07-24T06:51:55;101867.47;;;17.72;100.00
3444;BME280;1736;52.068;6.968;2023-07-24T06:54:21;101908.03;;;17.69;100.00
3444;BME280;1736;52.068;6.968;2023-07-24T06:56:48;101963.28;;;17.72;100.00
3444;BME280;1736;52.068;6.968;2023-07-24T06:59:14;102254.97;;;17.82;100.00
3444;BME280;1736;52.068;6.968;2023-07-24T07:01:41;101965.53;;;17.86;100.00
3444;BME280;1736;52.068;6.968;2023-07-24T07:04:07;101923.84;;;17.72;100.00
3444;BME280;1736;52.068;6.968;2023-07-24T07:06:34;102200.06;;;17.56;100.00
3444;BME280;1736;52.068;6.968;2023-07-24T07:09:02;101929.78;;;17.66;100.00
3444;BME280;1736;52.068;6.968;2023-07-24T07:11:30;101855.56;;;17.84;100.00
3444;BME280;1736;52.068;6.968;2023-07-24T07:13:56;102269.31;;;18.11;100.00
3444;BME280;1736;52.068;6.968;2023-07-24T07:16:23;101917.44;;;18.38;100.00
3444;BME280;1736;52.068;6.968;2023-07-24T07:18:49;101808.41;;;18.53;100.00
3444;BME280;1736;52.068;6.968;2023-07-24T07:21:16;101742.81;;;18.64;100.00
3444;BME280;1736;52.068;6.968;2023-07-24T07:23:42;101906.28;;;18.60;100.00
3444;BME280;1736;52.068;6.968;2023-07-24T07:26:10;102074.19;;;18.75;100.00
3444;BME280;1736;52.068;6.968;2023-07-24T07:28:37;102017.25;;;18.89;100.00
3444;BME280;1736;52.068;6.968;2023-07-24T07:31:03;101912.38;;;18.97;100.00
3444;BME280;1736;52.068;6.968;2023-07-24T07:33:30;101980.31;;;18.82;100.00
3444;BME280;1736;52.068;6.968;2023-07-24T07:35:57;101853.53;;;18.94;100.00
3444;BME280;1736;52.068;6.968;2023-07-24T07:38:23;101610.88;;;19.16;100.00
3444;BME280;1736;52.068;6.968;2023-07-24T07:40:50;101601.59;;;19.11;100.00
3444;BME280;1736;52.068;6.968;2023-07-24T07:43:18;102082.44;;;19.28;100.00
3444;BME280;1736;52.068;6.968;2023-07-24T07:45:46;101799.88;;;19.10;100.00
3444;BME280;1736;52.068;6.968;2023-07-24T07:48:12;101600.03;;;19.26;100.00
3444;BME280;1736;52.068;6.968;2023-07-24T07:50:39;101474.72;;;19.23;100.00
3444;BME280;1736;52.068;6.968;2023-07-24T07:53:05;101460.25;;;19.32;100.00
3444;BME280;1736;52.068;6.968;2023-07-24T07:55:32;101432.00;;;19.28;100.00
3444;BME280;1736;52.068;6.968;2023-07-24T07:57:58;101405.69;;;19.06;100.00
3444;BME280;1736;52.068;6.968;2023-07-24T08:00:26;101853.84;;;18.91;100.00
3444;BME280;1736;52.068;6.968;2023-07-24T08:02:53;101613.88;;;19.13;100.00
3444;BME280;1736;52.068;6.968;2023-07-24T08:05:19;101489.88;;;19.40;100.00
3444;BME280;1736;52.068;6.968;2023-07-24T08:07:46;101429.81;;;19.40;100.00
3444;BME280;1736;52.068;6.968;2023-07-24T08:10:13;101352.91;;;19.61;100.00
3444;BME280;1736;52.068;6.968;2023-07-24T08:12:40;101310.16;;;19.58;100.00
3444;BME280;1736;52.068;6.968;2023-07-24T08:15:08;101290.09;;;19.85;100.00
3444;BME280;1736;52.068;6.968;2023-07-24T08:17:36;101270.25;;;19.78;100.00
3444;BME280;1736;52.068;6.968;2023-07-24T08:20:03;101260.81;;;19.82;99.80
3444;BME280;1736;52.068;6.968;2023-07-24T08:22:30;101248.88;;;19.76;98.83
3444;BME280;1736;52.068;6.968;2023-07-24T08:24:56;101240.06;;;19.90;99.07
3444;BME280;1736;52.068;6.968;2023-07-24T08:27:23;101222.16;;;20.06;98.48
3444;BME280;1736;52.068;6.968;2023-07-24T08:29:50;101236.72;;;20.27;98.94
3444;BME280;1736;52.068;6.968;2023-07-24T08:32:17;101203.13;;;20.38;95.45
3444;BME280;1736;52.068;6.968;2023-07-24T08:34:45;101206.06;;;20.51;96.14
3444;BME280;1736;52.068;6.968;2023-07-24T08:37:12;101168.78;;;20.54;93.55
3444;BME280;1736;52.068;6.968;2023-07-24T08:39:38;101161.63;;;20.47;93.15
3444;BME280;1736;52.068;6.968;2023-07-24T08:42:09;101158.81;;;20.77;92.27
3444;BME280;1736;52.068;6.968;2023-07-24T08:44:36;101149.09;;;20.91;92.35
3444;BME280;1736;52.068;6.968;2023-07-24T08:47:04;101136.78;;;21.11;91.76
3444;BME280;1736;52.068;6.968;2023-07-24T08:49:31;101172.81;;;21.18;89.01
3444;BME280;1736;52.068;6.968;2023-07-24T08:52:00;101153.63;;;21.27;89.01
3444;BME280;1736;52.068;6.968;2023-07-24T08:54:27;101157.91;;;21.51;88.55
3444;BME280;1736;52.068;6.968;2023-07-24T08:56:55;101428.97;;;21.27;86.86
3444;BME280;1736;52.068;6.968;2023-07-24T08:59:22;101862.28;;;20.91;88.48
3444;BME280;1736;52.068;6.968;2023-07-24T09:01:48;101717.03;;;20.55;90.03
3444;BME280;1736;52.068;6.968;2023-07-24T09:04:16;101695.78;;;20.60;90.84
3444;BME280;1736;52.068;6.968;2023-07-24T09:06:42;101547.34;;;20.13;92.74
3444;BME280;1736;52.068;6.968;2023-07-24T09:09:14;101279.25;;;20.09;94.71
3444;BME280;1736;52.068;6.968;2023-07-24T09:11:51;101178.16;;;19.82;97.16
3444;BME280;1736;52.068;6.968;2023-07-24T09:14:23;101131.75;;;19.72;96.42
3444;BME280;1736;52.068;6.968;2023-07-24T09:16:50;101096.41;;;19.75;96.34
3444;BME280;1736;52.068;6.968;2023-07-24T09:19:18;101091.28;;;19.88;95.31
3444;BME280;1736;52.068;6.968;2023-07-24T09:21:45;101092.97;;;20.12;95.99
3444;BME280;1736;52.068;6.968;2023-07-24T09:24:14;101075.84;;;20.28;94.50
3444;BME280;1736;52.068;6.968;2023-07-24T09:26:50;101047.19;;;20.49;94.94
3444;BME280;1736;52.068;6.968;2023-07-24T09:29:17;101041.06;;;20.55;96.19
3444;BME280;1736;52.068;6.968;2023-07-24T09:31:44;101034.25;;;20.45;98.21
3444;BME280;1736;52.068;6.968;2023-07-24T09:34:16;101001.72;;;20.09;97.14
3444;BME280;1736;52.068;6.968;2023-07-24T09:36:42;100975.97;;;20.07;98.47
3444;BME280;1736;52.068;6.968;2023-07-24T09:39:09;100949.53;;;19.88;99.42
3444;BME280;1736;52.068;6.968;2023-07-24T09:41:38;100910.97;;;19.72;99.84
3444;BME280;1736;52.068;6.968;2023-07-24T09:44:05;100918.19;;;19.72;98.63
3444;BME280;1736;52.068;6.968;2023-07-24T09:46:32;100909.56;;;19.76;100.00
3444;BME280;1736;52.068;6.968;2023-07-24T09:48:59;100875.56;;;19.61;100.00
3444;BME280;1736;52.068;6.968;2023-07-24T09:51:29;100865.22;;;19.50;100.00
3444;BME280;1736;52.068;6.968;2023-07-24T09:54:00;100856.34;;;19.64;99.96
3444;BME280;1736;52.068;6.968;2023-07-24T09:56:27;100840.28;;;19.70;98.16
3444;BME280;1736;52.068;6.968;2023-07-24T09:58:56;100822.00;;;19.66;98.09
3444;BME280;1736;52.068;6.968;2023-07-24T10:01:25;100789.44;;;19.75;96.74
3444;BME280;1736;52.068;6.968;2023-07-24T10:03:52;100786.66;;;19.83;96.96
3444;BME280;1736;52.068;6.968;2023-07-24T10:06:19;100769.38;;;19.92;96.20
3444;BME280;1736;52.068;6.968;2023-07-24T10:08:47;101055.75;;;20.16;93.85
3444;BME280;1736;52.068;6.968;2023-07-24T10:11:14;101234.75;;;20.13;94.63
3444;BME280;1736;52.068;6.968;2023-07-24T10:13:41;101622.34;;;20.42;93.42
3444;BME280;1736;52.068;6.968;2023-07-24T10:16:09;101362.19;;;20.38;92.54
3444;BME280;1736;52.068;6.968;2023-07-24T10:18:43;101191.56;;;20.52;92.00
3444;BME280;1736;52.068;6.968;2023-07-24T10:21:10;102281.00;;;20.52;91.34
3444;BME280;1736;52.068;6.968;2023-07-24T10:23:41;101927.06;;;20.58;91.31
3444;BME280;1736;52.068;6.968;2023-07-24T10:26:08;101691.75;;;20.80;91.00
3444;BME280;1736;52.068;6.968;2023-07-24T10:28:36;101629.34;;;21.07;90.33
3444;BME280;1736;52.068;6.968;2023-07-24T10:31:04;101424.13;;;21.23;88.93
3444;BME280;1736;52.068;6.968;2023-07-24T10:33:36;101400.72;;;21.60;87.00
3444;BME280;1736;52.068;6.968;2023-07-24T10:36:10;101330.28;;;21.99;85.02
3444;BME280;1736;52.068;6.968;2023-07-24T10:38:40;101196.97;;;22.13;81.02
3444;BME280;1736;52.068;6.968;2023-07-24T10:41:08;101165.53;;;21.91;78.80
3444;BME280;1736;52.068;6.968;2023-07-24T10:43:43;101591.94;;;21.65;79.30
3444;BME280;1736;52.068;6.968;2023-07-24T10:46:10;102283.41;;;21.66;81.36
3444;BME280;1736;52.068;6.968;2023-07-24T10:48:42;101396.63;;;21.87;80.87
3444;BME280;1736;52.068;6.968;2023-07-24T10:51:10;102057.16;;;22.00;80.04
3444;BME280;1736;52.068;6.968;2023-07-24T10:53:42;105140.66;;;22.50;80.71
3444;BME280;1736;52.068;6.968;2023-07-24T10:56:09;102283.38;;;22.57;77.68
3444;BME280;1736;52.068;6.968;2023-07-24T10:58:35;104388.63;;;22.65;75.00
3444;BME280;1736;52.068;6.968;2023-07-24T11:01:03;102149.97;;;22.57;75.22
3444;BME280;1736;52.068;6.968;2023-07-24T11:03:31;101754.78;;;23.18;74.08
3444;BME280;1736;52.068;6.968;2023-07-24T11:05:59;101655.06;;;23.21;72.78
3444;BME280;1736;52.068;6.968;2023-07-24T11:08:26;101652.06;;;23.02;71.35
3444;BME280;1736;52.068;6.968;2023-07-24T11:10:53;101571.28;;;22.91;70.88
3444;BME280;1736;52.068;6.968;2023-07-24T11:13:22;101702.06;;;22.91;71.86
3444;BME280;1736;52.068;6.968;2023-07-24T11:15:49;101503.81;;;22.75;71.00
3444;BME280;1736;52.068;6.968;2023-07-24T11:18:17;101555.72;;;22.64;72.08
3444;BME280;1736;52.068;6.968;2023-07-24T11:20:48;101417.88;;;22.19;72.15
3444;BME280;1736;52.068;6.968;2023-07-24T11:23:17;101340.03;;;22.29;72.74
3444;BME280;1736;52.068;6.968;2023-07-24T11:25:44;101313.09;;;22.21;72.13
3444;BME280;1736;52.068;6.968;2023-07-24T11:28:11;101912.34;;;22.14;73.46
3444;BME280;1736;52.068;6.968;2023-07-24T11:30:38;101491.47;;;21.92;74.30
3444;BME280;1736;52.068;6.968;2023-07-24T11:33:08;101279.16;;;21.46;75.07
3444;BME280;1736;52.068;6.968;2023-07-24T11:35:36;101201.31;;;21.35;76.17
3444;BME280;1736;52.068;6.968;2023-07-24T11:38:04;101228.97;;;21.00;76.91
3444;BME280;1736;52.068;6.968;2023-07-24T11:40:35;101204.31;;;21.03;76.83
3444;BME280;1736;52.068;6.968;2023-07-24T11:43:02;101149.81;;;20.85;78.36
3444;BME280;1736;52.068;6.968;2023-07-24T11:45:29;101157.75;;;20.64;78.05
3444;BME280;1736;52.068;6.968;2023-07-24T11:47:55;101171.66;;;20.75;77.83
3444;BME280;1736;52.068;6.968;2023-07-24T11:50:23;101136.47;;;20.91;77.70
3444;BME280;1736;52.068;6.968;2023-07-24T11:52:51;101108.22;;;21.02;77.98
3444;BME280;1736;52.068;6.968;2023-07-24T11:55:19;101074.16;;;21.30;77.17
3444;BME280;1736;52.068;6.968;2023-07-24T11:57:57;101080.66;;;21.21;76.25
3444;BME280;1736;52.068;6.968;2023-07-24T12:00:24;101274.00;;;21.36;74.97
3444;BME280;1736;52.068;6.968;2023-07-24T12:02:51;101098.91;;;21.19;75.68
3444;BME280;1736;52.068;6.968;2023-07-24T12:05:18;101061.47;;;21.16;75.10
3444;BME280;1736;52.068;6.968;2023-07-24T12:07:45;101018.19;;;21.24;75.04
3444;BME280;1736;52.068;6.968;2023-07-24T12:10:13;101006.78;;;21.22;74.28
3444;BME280;1736;52.068;6.968;2023-07-24T12:12:43;101008.97;;;21.33;74.16
3444;BME280;1736;52.068;6.968;2023-07-24T12:15:12;101002.44;;;21.42;73.77
3444;BME280;1736;52.068;6.968;2023-07-24T12:17:39;100937.28;;;21.51;74.24
3444;BME280;1736;52.068;6.968;2023-07-24T12:20:06;100910.53;;;21.71;74.27
3444;BME280;1736;52.068;6.968;2023-07-24T12:22:35;100875.38;;;21.50;73.62
3444;BME280;1736;52.068;6.968;2023-07-24T12:25:01;100891.03;;;21.75;73.24
3444;BME280;1736;52.068;6.968;2023-07-24T12:27:28;100773.25;;;21.81;72.05
3444;BME280;1736;52.068;6.968;2023-07-24T12:29:55;100783.41;;;22.13;71.48
3444;BME280;1736;52.068;6.968;2023-07-24T12:32:22;100768.34;;;22.38;70.97
3444;BME280;1736;52.068;6.968;2023-07-24T12:34:50;100800.13;;;22.83;69.69
3444;BME280;1736;52.068;6.968;2023-07-24T12:37:17;100815.56;;;22.89;68.75
3444;BME280;1736;52.068;6.968;2023-07-24T12:39:44;100824.31;;;23.04;69.04
3444;BME280;1736;52.068;6.968;2023-07-24T12:42:11;100843.53;;;23.15;69.77
3444;BME280;1736;52.068;6.968;2023-07-24T12:44:38;101132.28;;;23.02;68.71
3444;BME280;1736;52.068;6.968;2023-07-24T12:47:05;100032.81;;;23.06;69.45
3444;BME280;1736;52.068;6.968;2023-07-24T12:49:33;99908.03;;;23.44;69.11
3444;BME280;1736;52.068;6.968;2023-07-24T12:52:00;99714.84;;;23.27;65.94
3444;BME280;1736;52.068;6.968;2023-07-24T12:54:26;99716.75;;;23.61;66.34
3444;BME280;1736;52.068;6.968;2023-07-24T12:56:53;99722.53;;;23.99;65.28
3444;BME280;1736;52.068;6.968;2023-07-24T12:59:20;99720.03;;;23.74;64.75
3444;BME280;1736;52.068;6.968;2023-07-24T13:01:46;99727.47;;;23.79;64.29
3444;BME280;1736;52.068;6.968;2023-07-24T13:04:13;99725.59;;;23.56;64.19
3444;BME280;1736;52.068;6.968;2023-07-24T13:06:41;99706.88;;;23.43;65.54